Time;durP1;ratioP1;P1;durP2;ratioP2;P2;SDS_P1;SDS_P2;PMS_P1;PMS_P2;Temp;Humidity;BMP_temperature;BMP_pressure;BME280_temperature;BME280_humidity;BME280_pressure;Samples;Min_cycle;Max_cycle;Signal;HPM_P1;HPM_P2
2023/01/21 00:01:57;;;;;;;21.80;9.90;;;;;;;0.89;99.03;100779.42;105350;1256;97951;-76
2023/01/21 00:04:42;;;;;;;15.90;9.90;;;;;;;0.90;99.01;100779.56;105386;1256;98394;-75
2023/01/21 00:07:28;;;;;;;15.10;8.50;;;;;;;0.89;98.99;100779.95;105398;1258;101393;-76
2023/01/21 00:10:14;;;;;;;15.30;10.30;;;;;;;0.89;99.03;100775.59;105486;1256;99636;-75
2023/01/21 00:12:59;;;;;;;16.30;9.90;;;;;;;0.90;99.07;100782.40;105422;1259;98420;-74
2023/01/21 00:15:45;;;;;;;14.20;8.60;;;;;;;0.90;99.05;100789.89;105382;1257;97953;-74
2023/01/21 00:18:32;;;;;;;18.50;10.10;;;;;;;0.90;98.95;100787.63;105571;1256;97966;-76
2023/01/21 00:21:17;;;;;;;15.70;9.20;;;;;;;0.90;99.09;100789.56;105442;1259;102645;-75
2023/01/21 00:24:03;;;;;;;20.80;10.60;;;;;;;0.91;98.95;100789.67;105446;1258;100323;-76
2023/01/21 00:26:48;;;;;;;16.00;9.30;;;;;;;0.90;98.97;100785.64;105261;1260;99276;-75
2023/01/21 00:29:34;;;;;;;18.80;8.80;;;;;;;0.90;99.05;100780.07;105423;1257;99295;-76
2023/01/21 00:32:19;;;;;;;16.50;9.40;;;;;;;0.90;98.96;100777.42;105370;1256;97969;-76
2023/01/21 00:35:06;;;;;;;17.70;10.00;;;;;;;0.91;98.97;100779.64;105362;1259;101339;-75
2023/01/21 00:37:51;;;;;;;19.40;10.30;;;;;;;0.91;99.04;100777.73;105480;1259;100305;-76
2023/01/21 00:40:37;;;;;;;20.20;10.20;;;;;;;0.90;99.11;100776.05;105438;1259;97999;-76
2023/01/21 00:43:22;;;;;;;22.00;10.30;;;;;;;0.90;99.08;100779.05;105362;1260;98408;-73
2023/01/21 00:46:10;;;;;;;21.20;11.30;;;;;;;0.90;99.18;100779.77;105400;1259;97884;-75
2023/01/21 00:48:55;;;;;;;16.40;8.70;;;;;;;0.91;99.20;100787.21;105395;1259;102221;-74
2023/01/21 00:51:41;;;;;;;17.80;9.40;;;;;;;0.92;99.13;100788.88;105288;1256;99072;-74
2023/01/21 00:54:26;;;;;;;16.90;9.30;;;;;;;0.93;99.07;100788.63;105655;1256;99098;-78
2023/01/21 00:57:12;;;;;;;15.20;9.40;;;;;;;0.95;99.17;100778.64;105365;1259;99615;-76
2023/01/21 00:59:59;;;;;;;15.10;8.50;;;;;;;0.97;99.05;100776.53;105378;1256;98450;-77
2023/01/21 01:02:45;;;;;;;14.50;8.50;;;;;;;0.99;99.02;100775.33;105404;1259;102605;-77
2023/01/21 01:05:31;;;;;;;13.70;8.00;;;;;;;1.00;98.97;100774.00;105275;1256;100860;-75
2023/01/21 01:08:17;;;;;;;15.40;8.30;;;;;;;1.01;98.83;100766.17;105328;1257;99454;-76
2023/01/21 01:11:03;;;;;;;15.60;8.80;;;;;;;1.01;98.89;100767.23;105364;1255;99322;-76
2023/01/21 01:13:49;;;;;;;14.40;9.50;;;;;;;1.01;98.85;100766.48;105197;1256;98021;-75
2023/01/21 01:16:34;;;;;;;15.20;9.10;;;;;;;1.01;98.77;100755.06;105511;1259;102651;-77
2023/01/21 01:19:19;;;;;;;18.40;9.50;;;;;;;1.02;98.68;100754.63;105380;1256;100319;-76
2023/01/21 01:22:05;;;;;;;18.10;8.60;;;;;;;1.03;98.64;100744.35;105190;1257;97978;-75
2023/01/21 01:24:50;;;;;;;11.10;7.50;;;;;;;1.04;98.70;100743.72;105407;1255;98068;-75
2023/01/21 01:27:36;;;;;;;14.50;8.80;;;;;;;1.06;98.54;100747.98;105626;1258;98504;-74
2023/01/21 01:30:21;;;;;;;13.70;8.10;;;;;;;1.08;98.57;100745.40;105395;1256;101383;-76
2023/01/21 01:33:07;;;;;;;14.40;7.90;;;;;;;1.09;98.54;100755.15;105346;1256;99262;-75
2023/01/21 01:35:52;;;;;;;12.30;7.40;;;;;;;1.10;98.67;100754.53;105414;1258;100036;-76
2023/01/21 01:38:38;;;;;;;13.60;7.50;;;;;;;1.12;98.51;100751.41;105349;1255;97948;-76
2023/01/21 01:41:27;;;;;;;11.90;7.20;;;;;;;1.12;98.39;100749.05;105482;1256;98406;-76
2023/01/21 01:44:50;;;;;;;12.30;7.70;;;;;;;1.13;98.41;100745.66;105874;1256;101512;-76
2023/01/21 01:47:42;;;;;;;14.70;8.30;;;;;;;1.14;98.37;100734.55;105405;1256;100402;-76
2023/01/21 01:50:34;;;;;;;13.40;7.70;;;;;;;1.14;98.30;100730.64;105455;1257;99379;-76
2023/01/21 01:53:20;;;;;;;15.60;9.30;;;;;;;1.14;98.41;100734.86;105505;1257;97962;-75
2023/01/21 01:56:06;;;;;;;13.30;8.30;;;;;;;1.12;98.51;100730.64;105290;1259;98542;-75
2023/01/21 01:58:51;;;;;;;17.30;9.80;;;;;;;1.07;98.73;100722.60;106020;1259;102048;-76
2023/01/21 02:01:37;;;;;;;17.10;9.80;;;;;;;1.01;99.03;100719.59;105321;1259;100348;-75
2023/01/21 02:04:28;;;;;;;14.20;7.90;;;;;;;0.95;99.27;100724.77;105378;1259;99485;-74
2023/01/21 02:07:16;;;;;;;19.70;10.10;;;;;;;0.90;99.69;100713.46;105298;1257;97883;-74
2023/01/21 02:10:02;;;;;;;17.10;9.30;;;;;;;0.85;100.00;100705.98;105439;1257;98568;-75
2023/01/21 02:12:47;;;;;;;15.10;8.60;;;;;;;0.80;100.00;100707.94;105444;1260;102265;-74
2023/01/21 02:16:02;;;;;;;15.90;9.80;;;;;;;0.76;100.00;100706.15;105463;1257;99834;-76
2023/01/21 02:19:12;;;;;;;13.60;8.80;;;;;;;0.70;100.00;100695.16;105352;1259;98051;-75
2023/01/21 02:22:25;;;;;;;16.50;8.60;;;;;;;0.68;100.00;100695.39;105390;1259;97849;-75
2023/01/21 02:25:40;;;;;;;17.30;9.40;;;;;;;0.64;100.00;100695.63;105172;1259;98424;-75
2023/01/21 02:28:47;;;;;;;15.70;9.30;;;;;;;0.60;100.00;100689.27;105890;1256;102351;-76
2023/01/21 02:32:10;;;;;;;15.50;9.10;;;;;;;0.58;100.00;100684.89;105361;1256;100722;-76
2023/01/21 02:35:02;;;;;;;17.00;9.70;;;;;;;0.56;100.00;100673.64;105282;1258;97986;-76
2023/01/21 02:38:05;;;;;;;15.70;9.10;;;;;;;0.54;100.00;100668.66;105449;1259;97946;-76
2023/01/21 02:41:10;;;;;;;18.20;9.80;;;;;;;0.53;100.00;100666.53;105435;1257;100375;-78
2023/01/21 02:44:12;;;;;;;17.80;9.70;;;;;;;0.52;100.00;100666.59;105494;1259;102522;-77
2023/01/21 02:47:09;;;;;;;19.40;10.70;;;;;;;0.50;100.00;100661.98;105445;1259;100281;-76
2023/01/21 02:50:11;;;;;;;15.20;9.50;;;;;;;0.48;100.00;100655.84;105453;1259;98748;-76
2023/01/21 02:53:01;;;;;;;16.70;10.20;;;;;;;0.46;100.00;100652.48;105480;1259;98357;-76
2023/01/21 02:55:47;;;;;;;14.30;9.40;;;;;;;0.44;100.00;100643.70;105282;1259;97970;-77
2023/01/21 02:58:37;;;;;;;14.90;9.20;;;;;;;0.42;100.00;100645.77;105389;1259;101416;-75
2023/01/21 03:01:25;;;;;;;12.40;8.20;;;;;;;0.41;100.00;100643.94;105383;1259;99112;-77
2023/01/21 03:04:27;;;;;;;17.50;10.20;;;;;;;0.39;100.00;100642.85;105341;1256;99364;-77
2023/01/21 03:07:31;;;;;;;16.70;10.50;;;;;;;0.38;100.00;100645.21;105505;1257;97953;-76
2023/01/21 03:10:29;;;;;;;15.50;9.20;;;;;;;0.38;100.00;100638.40;105185;1256;99282;-77
2023/01/21 03:16:57;;;;;;;14.40;9.60;;;;;;;0.35;100.00;100632.61;105409;1257;100056;-77
2023/01/21 03:19:48;;;;;;;14.90;9.30;;;;;;;0.34;100.00;100637.77;105426;1257;99237;-76
2023/01/21 03:22:36;;;;;;;16.60;9.60;;;;;;;0.34;100.00;100633.41;105359;1257;97959;-75
2023/01/21 03:25:24;;;;;;;16.50;9.20;;;;;;;0.34;100.00;100630.30;105385;1260;98449;-75
2023/01/21 03:28:18;;;;;;;13.30;8.60;;;;;;;0.32;100.00;100619.66;105701;1259;101361;-76
2023/01/21 03:31:30;;;;;;;13.90;8.00;;;;;;;0.30;100.00;100618.44;105361;1255;99080;-75
2023/01/21 03:34:17;;;;;;;13.90;7.80;;;;;;;0.29;100.00;100621.34;105369;1259;98036;-75
2023/01/21 03:37:14;;;;;;;13.50;8.10;;;;;;;0.29;100.00;100618.06;105319;1257;97956;-75
2023/01/21 03:40:17;;;;;;;15.50;9.30;;;;;;;0.29;100.00;100619.83;105491;1259;97979;-76
2023/01/21 03:43:03;;;;;;;15.40;8.90;;;;;;;0.28;100.00;100618.12;105393;1256;101279;-76
2023/01/21 03:45:57;;;;;;;12.20;7.20;;;;;;;0.27;100.00;100611.48;105438;1259;100288;-76
2023/01/21 03:48:58;;;;;;;12.20;7.20;;;;;;;0.27;100.00;100600.29;105410;1257;97974;-78
2023/01/21 03:51:53;;;;;;;12.60;7.60;;;;;;;0.26;100.00;100590.02;105230;1272;98050;-77
2023/01/21 03:54:39;;;;;;;12.30;7.10;;;;;;;0.25;100.00;100584.63;105261;1259;97864;-76
2023/01/21 03:57:24;;;;;;;15.30;7.70;;;;;;;0.24;100.00;100578.73;105208;1260;101385;-77
2023/01/21 04:00:12;;;;;;;14.40;8.80;;;;;;;0.24;100.00;100572.11;105331;1259;99079;-76
2023/01/21 04:02:57;;;;;;;12.00;7.10;;;;;;;0.24;100.00;100568.06;105342;1259;99120;-73
2023/01/21 04:05:43;;;;;;;13.50;7.70;;;;;;;0.23;100.00;100562.33;105388;1259;98414;-75
2023/01/21 04:08:28;;;;;;;12.30;8.00;;;;;;;0.22;100.00;100548.03;105422;1257;99122;-76
2023/01/21 04:11:15;;;;;;;16.40;9.50;;;;;;;0.21;100.00;100542.09;105337;1256;101338;-76
2023/01/21 04:14:00;;;;;;;12.30;6.80;;;;;;;0.20;100.00;100536.37;105452;1257;100325;-74
2023/01/21 04:16:46;;;;;;;10.80;7.40;;;;;;;0.20;100.00;100539.55;105363;1256;97961;-76
2023/01/21 04:19:31;;;;;;;14.30;8.40;;;;;;;0.20;100.00;100539.75;105429;1274;97989;-76
2023/01/21 04:22:17;;;;;;;13.40;8.40;;;;;;;0.19;100.00;100543.85;105312;1256;99326;-76
2023/01/21 04:25:04;;;;;;;12.10;8.10;;;;;;;0.19;100.00;100535.98;105392;1259;102523;-76
2023/01/21 04:27:49;;;;;;;13.20;7.90;;;;;;;0.19;100.00;100541.88;105244;1256;99301;-77
2023/01/21 04:30:35;;;;;;;11.80;8.20;;;;;;;0.20;100.00;100544.48;105384;1259;97967;-75
2023/01/21 04:33:21;;;;;;;16.20;8.50;;;;;;;0.20;100.00;100543.05;105372;1257;98039;-75
2023/01/21 04:36:06;;;;;;;15.20;9.10;;;;;;;0.20;100.00;100539.70;105363;1257;98470;-74
2023/01/21 04:38:52;;;;;;;13.70;8.50;;;;;;;0.20;100.00;100524.80;105335;1256;102633;-74
2023/01/21 04:41:37;;;;;;;14.20;8.20;;;;;;;0.20;100.00;100536.70;105519;1259;100396;-74
2023/01/21 04:44:23;;;;;;;14.70;8.40;;;;;;;0.20;100.00;100537.10;105409;1259;97931;-74
2023/01/21 04:47:08;;;;;;;13.40;7.80;;;;;;;0.20;100.00;100535.36;105407;1255;97960;-75
2023/01/21 04:49:54;;;;;;;13.30;7.70;;;;;;;0.19;100.00;100532.39;105596;1257;100468;-75
2023/01/21 04:52:40;;;;;;;13.70;8.70;;;;;;;0.19;100.00;100531.39;105521;1256;102390;-75
2023/01/21 04:55:26;;;;;;;12.80;8.00;;;;;;;0.19;100.00;100531.05;105520;1255;100271;-76
2023/01/21 04:58:11;;;;;;;13.50;8.00;;;;;;;0.18;100.00;100532.13;105547;1259;99317;-75
2023/01/21 05:00:57;;;;;;;15.40;8.10;;;;;;;0.18;100.00;100534.07;105509;1261;99923;-75
2023/01/21 05:03:43;;;;;;;12.20;7.00;;;;;;;0.18;100.00;100536.70;105423;1257;98213;-76
2023/01/21 05:06:28;;;;;;;12.60;7.30;;;;;;;0.18;100.00;100544.08;105349;1260;101351;-75
2023/01/21 05:09:14;;;;;;;10.60;7.10;;;;;;;0.18;100.00;100544.96;105309;1259;100048;-75
2023/01/21 05:12:00;;;;;;;11.70;7.90;;;;;;;0.19;100.00;100556.17;105517;1256;99054;-75
2023/01/21 05:14:45;;;;;;;13.30;7.20;;;;;;;0.18;100.00;100557.27;105315;1257;99152;-75
2023/01/21 05:17:31;;;;;;;10.70;6.80;;;;;;;0.18;100.00;100558.47;105447;1259;96222;-75
2023/01/21 05:20:16;;;;;;;10.80;7.00;;;;;;;0.18;100.00;100562.02;105444;1256;101528;-75
2023/01/21 05:23:02;;;;;;;9.90;6.50;;;;;;;0.18;100.00;100553.94;105325;1259;99142;-74
2023/01/21 05:25:48;;;;;;;10.10;6.10;;;;;;;0.18;100.00;100552.34;105442;1260;97970;-75
2023/01/21 05:28:33;;;;;;;8.60;4.90;;;;;;;0.17;100.00;100550.48;105443;1256;97874;-75
2023/01/21 05:31:19;;;;;;;9.50;5.70;;;;;;;0.17;100.00;100552.66;105417;1259;99657;-74
2023/01/21 05:34:05;;;;;;;10.30;6.80;;;;;;;0.16;100.00;100551.11;105508;1259;102588;-74
2023/01/21 05:36:50;;;;;;;10.00;6.00;;;;;;;0.16;100.00;100550.95;105480;1259;101074;-75
2023/01/21 05:39:36;;;;;;;8.60;6.20;;;;;;;0.17;100.00;100547.39;105375;1259;98051;-74
2023/01/21 05:42:22;;;;;;;7.90;5.30;;;;;;;0.17;100.00;100543.13;105511;1258;97963;-75
2023/01/21 05:45:07;;;;;;;7.90;5.10;;;;;;;0.17;100.00;100547.48;105330;1259;99129;-74
2023/01/21 05:47:52;;;;;;;8.00;5.30;;;;;;;0.19;100.00;100549.49;105381;1256;102565;-74
2023/01/21 05:50:38;;;;;;;8.70;5.40;;;;;;;0.19;100.00;100548.23;105410;1259;99853;-75
2023/01/21 05:53:24;;;;;;;6.90;4.70;;;;;;;0.19;100.00;100546.11;105410;1257;99029;-76
2023/01/21 05:56:10;;;;;;;6.30;4.70;;;;;;;0.20;100.00;100547.45;105402;1259;97963;-75
2023/01/21 05:58:56;;;;;;;6.30;4.30;;;;;;;0.20;100.00;100552.34;105341;1259;99643;-75
2023/01/21 06:01:42;;;;;;;7.50;4.50;;;;;;;0.20;100.00;100557.42;105326;1257;101336;-76
2023/01/21 06:04:29;;;;;;;6.00;4.80;;;;;;;0.20;100.00;100557.61;105300;1256;100380;-74
2023/01/21 06:07:15;;;;;;;5.80;3.90;;;;;;;0.20;100.00;100559.41;105400;1259;97931;-76
2023/01/21 06:10:01;;;;;;;7.20;5.00;;;;;;;0.20;100.00;100558.16;105270;1256;97963;-75
2023/01/21 06:12:53;;;;;;;5.60;3.70;;;;;;;0.20;100.00;100559.20;105327;1259;98428;-76
2023/01/21 06:15:38;;;;;;;6.30;3.40;;;;;;;0.20;100.00;100559.56;105380;1256;103429;-75
2023/01/21 06:18:24;;;;;;;6.10;3.40;;;;;;;0.20;100.00;100565.73;105429;1257;99103;-74
2023/01/21 06:21:09;;;;;;;6.50;4.20;;;;;;;0.19;100.00;100563.48;105259;1259;98026;-75
2023/01/21 06:23:56;;;;;;;4.10;2.80;;;;;;;0.18;100.00;100566.39;105368;1257;97970;-75
2023/01/21 06:26:41;;;;;;;3.50;2.80;;;;;;;0.18;100.00;100564.83;105831;1259;99747;-75
2023/01/21 06:29:27;;;;;;;4.10;3.00;;;;;;;0.19;100.00;100557.18;105353;1261;101329;-75
2023/01/21 06:32:13;;;;;;;3.80;2.80;;;;;;;0.19;100.00;100559.27;105424;1256;99771;-74
2023/01/21 06:34:58;;;;;;;3.50;2.50;;;;;;;0.19;100.00;100558.39;105351;1257;97977;-74
2023/01/21 06:37:45;;;;;;;2.50;2.30;;;;;;;0.20;100.00;100550.42;105359;1259;97960;-74
2023/01/21 06:40:30;;;;;;;3.30;2.50;;;;;;;0.20;100.00;100556.74;105336;1259;98380;-75
2023/01/21 06:43:16;;;;;;;3.30;2.50;;;;;;;0.20;100.00;100562.17;105236;1262;102202;-75
2023/01/21 06:46:02;;;;;;;3.30;2.20;;;;;;;0.20;100.00;100555.68;105309;1259;99058;-74
2023/01/21 06:48:47;;;;;;;3.70;2.20;;;;;;;0.20;100.00;100556.55;105259;1257;100086;-74
2023/01/21 06:51:33;;;;;;;3.50;2.30;;;;;;;0.20;100.00;100559.52;105508;1257;97883;-74
2023/01/21 06:54:18;;;;;;;3.10;2.10;;;;;;;0.20;100.00;100560.60;105364;1259;99106;-75
2023/01/21 06:57:04;;;;;;;2.80;1.90;;;;;;;0.20;100.00;100557.11;105249;1259;101315;-75
2023/01/21 06:59:50;;;;;;;2.70;2.10;;;;;;;0.21;100.00;100565.30;105405;1259;99125;-75
2023/01/21 07:02:35;;;;;;;2.40;2.10;;;;;;;0.22;100.00;100560.62;105318;1272;99379;-75
2023/01/21 07:05:20;;;;;;;2.70;2.20;;;;;;;0.23;100.00;100561.65;105287;1258;98051;-75
2023/01/21 07:08:06;;;;;;;2.90;1.80;;;;;;;0.23;100.00;100566.87;105374;1259;97749;-75
2023/01/21 07:10:52;;;;;;;2.90;2.10;;;;;;;0.24;100.00;100569.09;105342;1256;101363;-76
2023/01/21 07:13:37;;;;;;;2.70;1.90;;;;;;;0.25;100.00;100571.10;105405;1259;100433;-75
2023/01/21 07:16:23;;;;;;;2.30;1.60;;;;;;;0.26;100.00;100561.48;105287;1257;97890;-76
2023/01/21 07:19:10;;;;;;;2.20;1.60;;;;;;;0.28;100.00;100568.94;105361;1258;99123;-76
2023/01/21 07:21:55;;;;;;;2.40;1.70;;;;;;;0.29;100.00;100572.02;106937;1259;96224;-75
2023/01/21 07:24:41;;;;;;;2.00;1.80;;;;;;;0.30;100.00;100572.46;105534;1259;103541;-75
2023/01/21 07:27:26;;;;;;;2.50;1.80;;;;;;;0.31;100.00;100563.90;105322;1257;100448;-74
2023/01/21 07:30:16;;;;;;;1.90;1.70;;;;;;;0.32;100.00;100559.95;105259;1260;97859;-75
2023/01/21 07:33:05;;;;;;;1.90;1.70;;;;;;;0.33;100.00;100555.19;105315;1259;97951;-77
2023/01/21 07:35:51;;;;;;;1.50;1.40;;;;;;;0.33;100.00;100553.59;105419;1259;97983;-77
2023/01/21 07:38:37;;;;;;;3.90;1.80;;;;;;;0.33;100.00;100555.51;105315;1256;102354;-76
2023/01/21 07:41:22;;;;;;;2.00;1.30;;;;;;;0.33;100.00;100559.91;105324;1256;100268;-77
2023/01/21 07:44:08;;;;;;;1.90;1.40;;;;;;;0.34;100.00;100564.23;105308;1256;99132;-76
2023/01/21 07:46:53;;;;;;;1.70;1.50;;;;;;;0.36;100.00;100563.91;105399;1257;98031;-76
2023/01/21 07:49:39;;;;;;;2.40;1.40;;;;;;;0.36;100.00;100557.75;105439;1259;97778;-76
2023/01/21 07:52:25;;;;;;;1.20;1.00;;;;;;;0.36;100.00;100557.22;105337;1257;101397;-75
2023/01/21 07:55:10;;;;;;;1.50;1.30;;;;;;;0.35;100.00;100558.14;105559;1257;100489;-75
2023/01/21 07:57:57;;;;;;;2.00;1.40;;;;;;;0.35;100.00;100554.46;105361;1255;99789;-75
2023/01/21 08:00:43;;;;;;;1.80;1.20;;;;;;;0.35;100.00;100551.35;105279;1257;99238;-75
2023/01/21 08:03:28;;;;;;;1.30;1.10;;;;;;;0.35;100.00;100545.17;105292;1256;98443;-74
2023/01/21 08:06:15;;;;;;;2.30;1.20;;;;;;;0.35;100.00;100547.77;105327;1256;101479;-76
2023/01/21 08:09:00;;;;;;;1.70;1.30;;;;;;;0.36;100.00;100547.55;105309;1259;99653;-76
2023/01/21 08:11:46;;;;;;;1.90;1.30;;;;;;;0.37;100.00;100553.11;105335;1259;100112;-76
2023/01/21 08:14:32;;;;;;;1.70;1.10;;;;;;;0.38;100.00;100547.96;105268;1256;97989;-74
2023/01/21 08:17:18;;;;;;;1.10;1.00;;;;;;;0.38;100.00;100544.36;105261;1259;98450;-76
2023/01/21 08:20:05;;;;;;;1.80;1.20;;;;;;;0.39;100.00;100544.85;105244;1260;102573;-74
2023/01/21 08:22:50;;;;;;;1.60;1.30;;;;;;;0.41;100.00;100546.98;105261;1259;99219;-75
2023/01/21 08:25:36;;;;;;;0.90;0.90;;;;;;;0.41;100.00;100551.31;105313;1257;97959;-74
2023/01/21 08:28:22;;;;;;;1.60;1.20;;;;;;;0.42;100.00;100554.40;105436;1259;98487;-76
2023/01/21 08:31:10;;;;;;;1.80;1.20;;;;;;;0.43;100.00;100551.52;105196;1257;98405;-76
2023/01/21 08:33:57;;;;;;;1.20;1.10;;;;;;;0.45;100.00;100553.35;105339;1256;103081;-75
2023/01/21 08:36:43;;;;;;;1.60;1.20;;;;;;;0.46;100.00;100554.84;105302;1259;99100;-75
2023/01/21 08:39:28;;;;;;;1.50;1.40;;;;;;;0.47;100.00;100551.38;105293;1261;98620;-75
2023/01/21 08:42:13;;;;;;;1.70;1.40;;;;;;;0.48;100.00;100556.05;105285;1257;99330;-76
2023/01/21 08:44:59;;;;;;;2.20;1.40;;;;;;;0.49;100.00;100554.20;105247;1257;98399;-75
2023/01/21 08:47:45;;;;;;;2.90;1.40;;;;;;;0.49;100.00;100557.00;105258;1259;102278;-74
2023/01/21 08:50:30;;;;;;;2.10;1.70;;;;;;;0.50;100.00;100563.96;105289;1257;100320;-74
2023/01/21 08:53:16;;;;;;;2.40;1.20;;;;;;;0.53;100.00;100566.91;105183;1259;98955;-74
2023/01/21 08:56:03;;;;;;;1.20;1.10;;;;;;;0.55;100.00;100568.32;105247;1260;97960;-74
2023/01/21 08:58:53;;;;;;;2.40;1.40;;;;;;;0.57;100.00;100570.45;105420;1257;98053;-76
2023/01/21 09:01:39;;;;;;;2.40;1.50;;;;;;;0.58;100.00;100568.92;105223;1256;102333;-75
2023/01/21 09:04:25;;;;;;;2.30;1.40;;;;;;;0.59;100.00;100568.88;105226;1257;99073;-74
2023/01/21 09:07:10;;;;;;;1.80;1.40;;;;;;;0.60;100.00;100573.30;105352;1259;98037;-74
2023/01/21 09:09:56;;;;;;;2.10;1.50;;;;;;;0.62;100.00;100569.30;105241;1259;99129;-74
2023/01/21 09:12:42;;;;;;;1.60;1.30;;;;;;;0.63;100.00;100572.91;105210;1259;97944;-74
2023/01/21 09:15:27;;;;;;;1.20;1.10;;;;;;;0.65;100.00;100574.27;105263;1259;102616;-75
2023/01/21 09:18:13;;;;;;;2.50;1.40;;;;;;;0.68;100.00;100575.13;105270;1259;99728;-74
2023/01/21 09:21:00;;;;;;;1.20;1.00;;;;;;;0.70;100.00;100573.55;105172;1256;98709;-75
2023/01/21 09:23:45;;;;;;;1.20;1.10;;;;;;;0.72;100.00;100571.31;105253;1262;97974;-74
2023/01/21 09:26:31;;;;;;;1.30;1.00;;;;;;;0.74;100.00;100579.91;105216;1255;97903;-75
2023/01/21 09:29:17;;;;;;;1.30;0.90;;;;;;;0.75;100.00;100578.41;105461;1259;101568;-74
2023/01/21 09:32:04;;;;;;;1.00;0.90;;;;;;;0.75;100.00;100583.02;105291;1259;100329;-74
2023/01/21 09:34:49;;;;;;;1.10;0.90;;;;;;;0.74;100.00;100585.16;105242;1257;98779;-74
2023/01/21 09:37:36;;;;;;;1.70;1.30;;;;;;;0.74;100.00;100578.32;105298;1259;97970;-76
2023/01/21 09:40:21;;;;;;;1.70;1.20;;;;;;;0.73;100.00;100577.48;105305;1256;98565;-74
2023/01/21 09:43:12;;;;;;;1.10;1.00;;;;;;;0.74;100.00;100580.05;105270;1264;102671;-75
2023/01/21 09:46:03;;;;;;;1.70;1.30;;;;;;;0.73;100.00;100586.52;105256;1259;100724;-75
2023/01/21 09:48:49;;;;;;;2.40;1.00;;;;;;;0.72;100.00;100587.98;105175;1257;97948;-75
2023/01/21 09:51:43;;;;;;;1.60;1.10;;;;;;;0.72;100.00;100585.86;105240;1256;97954;-75
2023/01/21 09:54:31;;;;;;;1.50;1.00;;;;;;;0.73;100.00;100586.70;105335;1256;97995;-75
2023/01/21 09:57:27;;;;;;;1.20;1.10;;;;;;;0.73;100.00;100589.85;105285;1262;101270;-75
2023/01/21 10:00:50;;;;;;;1.80;1.30;;;;;;;0.73;100.00;100590.20;105446;1259;99800;-74
2023/01/21 10:03:49;;;;;;;2.80;1.40;;;;;;;0.73;100.00;100590.38;105193;1259;98936;-75
2023/01/21 10:06:59;;;;;;;1.50;1.00;;;;;;;0.73;100.00;100593.35;105257;1259;98007;-75
2023/01/21 10:09:54;;;;;;;1.40;1.30;;;;;;;0.74;100.00;100595.01;105244;1260;98338;-74
2023/01/21 10:12:52;;;;;;;2.00;1.40;;;;;;;0.74;100.00;100595.17;105228;1259;102606;-74
2023/01/21 10:15:53;;;;;;;2.10;1.40;;;;;;;0.76;100.00;100598.55;105309;1259;100488;-74
2023/01/21 10:18:43;;;;;;;1.90;1.40;;;;;;;0.77;100.00;100603.73;105242;1269;97900;-75
2023/01/21 10:21:34;;;;;;;1.50;1.30;;;;;;;0.77;100.00;100599.52;105156;1259;99263;-74
2023/01/21 10:24:25;;;;;;;2.10;1.50;;;;;;;0.77;100.00;100600.21;105273;1256;98921;-74
2023/01/21 10:27:17;;;;;;;1.80;1.30;;;;;;;0.77;100.00;100604.58;105286;1259;101846;-74
2023/01/21 10:30:23;;;;;;;1.50;1.30;;;;;;;0.78;100.00;100602.09;105341;1257;99065;-74
2023/01/21 10:33:19;;;;;;;2.30;1.50;;;;;;;0.78;100.00;100606.14;105750;1259;98034;-75
2023/01/21 10:36:14;;;;;;;1.80;1.30;;;;;;;0.78;100.00;100611.91;105228;1256;97889;-74
2023/01/21 10:39:02;;;;;;;1.60;1.20;;;;;;;0.77;100.00;100611.61;105219;1262;98475;-74
2023/01/21 10:41:51;;;;;;;2.70;1.30;;;;;;;0.75;100.00;100612.65;105273;1259;102523;-75
2023/01/21 10:44:50;;;;;;;1.60;1.20;;;;;;;0.75;100.00;100607.77;105233;1259;101240;-75
2023/01/21 10:47:46;;;;;;;2.10;1.60;;;;;;;0.74;100.00;100611.38;105452;1259;98476;-74
2023/01/21 10:50:49;;;;;;;2.00;1.50;;;;;;;0.73;100.00;100610.95;105236;1262;97943;-75
2023/01/21 10:53:45;;;;;;;1.90;1.40;;;;;;;0.72;100.00;100612.54;105303;1256;98383;-74
2023/01/21 10:56:47;;;;;;;3.60;1.70;;;;;;;0.73;100.00;100616.86;105292;1259;102077;-73
2023/01/21 10:59:36;;;;;;;3.10;1.90;;;;;;;0.74;100.00;100623.70;105233;1257;100467;-73
2023/01/21 11:02:31;;;;;;;3.30;1.80;;;;;;;0.75;100.00;100623.55;105238;1257;98979;-74
2023/01/21 11:05:17;;;;;;;3.20;2.10;;;;;;;0.77;100.00;100625.55;105420;1260;98031;-74
2023/01/21 11:08:03;;;;;;;2.60;1.90;;;;;;;0.80;100.00;100623.58;105335;1259;98575;-74
2023/01/21 11:10:54;;;;;;;3.10;1.80;;;;;;;0.82;100.00;100626.92;105284;1260;102074;-73
2023/01/21 11:13:40;;;;;;;2.80;2.30;;;;;;;0.85;100.00;100634.54;105374;1259;101430;-73
2023/01/21 11:16:47;;;;;;;2.60;1.80;;;;;;;0.88;100.00;100633.10;105248;1260;100123;-73
2023/01/21 11:19:32;;;;;;;3.90;2.30;;;;;;;0.88;100.00;100635.88;105269;1261;97998;-74
2023/01/21 11:22:22;;;;;;;3.10;1.90;;;;;;;0.89;100.00;100637.41;105185;1257;101536;-73
2023/01/21 11:25:24;;;;;;;3.00;2.40;;;;;;;0.90;100.00;100638.70;105389;1259;102501;-74
2023/01/21 11:28:24;;;;;;;6.60;2.60;;;;;;;0.92;100.00;100636.98;105445;1257;99368;-73
2023/01/21 11:31:21;;;;;;;4.90;2.20;;;;;;;0.94;100.00;100636.26;104781;1272;97972;-75
2023/01/21 11:34:13;;;;;;;3.40;2.30;;;;;;;0.97;100.00;100638.89;105160;1260;97946;-74
2023/01/21 11:37:02;;;;;;;5.00;2.60;;;;;;;0.99;100.00;100643.80;105215;1259;98646;-74
2023/01/21 11:39:53;;;;;;;3.40;2.70;;;;;;;1.00;100.00;100643.84;105447;1259;103917;-73
2023/01/21 11:42:46;;;;;;;;;;;;;;;1.03;100.00;100642.42;105257;1257;99093;-74
2023/01/21 11:45:37;;;;;;;5.00;2.70;;;;;;;1.03;100.00;100644.73;106011;1257;98949;-74
2023/01/21 11:48:22;;;;;;;;;;;;;;;1.04;100.00;100647.79;105260;1260;99372;-75
2023/01/21 11:51:09;;;;;;;3.70;2.70;;;;;;;1.03;100.00;100654.02;105194;1260;98492;-75
2023/01/21 11:54:17;;;;;;;4.00;2.90;;;;;;;1.03;100.00;100655.60;105189;1260;101375;-74
2023/01/21 11:57:03;;;;;;;3.90;2.70;;;;;;;1.04;100.00;100660.79;105354;1259;99976;-74
2023/01/21 11:59:50;;;;;;;5.30;3.10;;;;;;;1.04;100.00;100666.40;105317;1257;98961;-74
2023/01/21 12:02:43;;;;;;;4.60;3.20;;;;;;;1.04;100.00;100669.04;105279;1257;98071;-75
2023/01/21 12:05:33;;;;;;;5.10;3.30;;;;;;;1.03;100.00;100670.30;105253;1259;98373;-74
2023/01/21 12:08:30;;;;;;;5.90;3.60;;;;;;;1.03;100.00;100673.34;105268;1259;101409;-74
2023/01/21 12:11:33;;;;;;;5.30;3.20;;;;;;;1.02;100.00;100678.49;105549;1275;100487;-75
2023/01/21 12:14:29;;;;;;;6.00;3.40;;;;;;;1.02;100.00;100679.90;105362;1259;97973;-74
2023/01/21 12:17:43;;;;;;;5.00;3.80;;;;;;;1.03;100.00;100684.23;105302;1258;98072;-74
2023/01/21 12:20:31;;;;;;;4.70;3.60;;;;;;;1.03;100.00;100689.89;105238;1259;99855;-74
2023/01/21 12:23:41;;;;;;;5.20;3.90;;;;;;;1.03;100.00;100692.53;105309;1260;102302;-74
2023/01/21 12:26:36;;;;;;;5.20;4.10;;;;;;;1.03;100.00;100695.31;105230;1259;99180;-75
2023/01/21 12:29:38;;;;;;;6.80;4.30;;;;;;;1.04;100.00;100697.00;105288;1257;98867;-75
2023/01/21 12:32:33;;;;;;;5.80;3.50;;;;;;;1.05;100.00;100700.23;105171;1269;99235;-74
2023/01/21 12:35:37;;;;;;;8.50;4.00;;;;;;;1.06;100.00;100698.38;105215;1259;98402;-74
2023/01/21 12:38:32;;;;;;;7.60;5.30;;;;;;;1.07;100.00;100703.96;105252;1256;101350;-74
2023/01/21 12:41:22;;;;;;;7.20;4.90;;;;;;;1.09;100.00;100706.23;105476;1260;99788;-75
2023/01/21 12:44:30;;;;;;;7.00;4.80;;;;;;;1.11;100.00;100710.53;108460;1259;99075;-75
2023/01/21 12:47:39;;;;;;;11.30;5.10;;;;;;;1.12;100.00;100717.27;106293;1257;97945;-74
2023/01/21 12:50:34;;;;;;;8.60;5.70;;;;;;;1.14;100.00;100717.27;105272;1259;97848;-72
2023/01/21 12:53:42;;;;;;;10.90;6.40;;;;;;;1.15;100.00;100721.73;105232;1260;102598;-73
2023/01/21 12:56:40;;;;;;;8.30;5.40;;;;;;;1.17;100.00;100729.89;105321;1259;100808;-74
2023/01/21 12:59:37;;;;;;;7.20;5.40;;;;;;;1.19;100.00;100732.88;105293;1258;98751;-73